Time,TemperatureF,DewpointF,PressureIn,WindDirection,WindDirectionDegrees,WindSpeedMPH,WindSpeedGustMPH,Humidity,HourlyPrecipIn,Conditions,Clouds,dailyrainin,SoftwareType,DateUTC
2013-03-02 00:02:00,28.2,25.1,30.06,NNW,331,11.5,11.5,88,0.00,RA,,0.00,WeatherDisplay:10.37,2013-03-02 06:02:00,
2013-03-02 00:07:00,28.1,25.0,30.07,NW,321,10.4,10.4,88,0.00,RA,,0.00,WeatherDisplay:10.37,2013-03-02 06:07:00,
2013-03-02 00:12:00,28.1,25.0,30.07,NW,315,15.0,15.0,88,0.00,CLR,,0.00,WeatherDisplay:10.37,2013-03-02 06:12:00,
2013-03-02 00:17:00,28.1,25.0,30.07,NNW,336,12.7,12.7,88,0.00,CLR,,0.00,WeatherDisplay:10.37,2013-03-02 06:17:00,
2013-03-02 00:22:00,28.0,24.9,30.07,NNW,332,11.5,11.5,88,0.00,CLR,,0.00,WeatherDisplay:10.37,2013-03-02 06:22:00,
2013-03-02 00:27:00,28.0,24.9,30.07,NNW,346,11.5,11.5,88,0.00,CLR,,0.00,WeatherDisplay:10.37,2013-03-02 06:27:00,
2013-03-02 00:32:00,28.0,24.9,30.07,NNW,342,12.0,12.0,88,0.00,CLR,,0.00,WeatherDisplay:10.37,2013-03-02 06:32:00,
2013-03-02 00:37:00,28.0,24.9,30.07,North,350,9.2,9.2,88,0.00,CLR,,0.00,WeatherDisplay:10.37,2013-03-02 06:37:00,
2013-03-02 00:42:00,28.1,25.0,30.07,NW,325,14.0,14.0,88,0.00,CLR,,0.00,WeatherDisplay:10.37,2013-03-02 06:42:00,
2013-03-02 00:47:00,28.0,24.9,30.07,NW,313,12.7,12.7,88,0.00,CLR,,0.00,WeatherDisplay:10.37,2013-03-02 06:47:00,
2013-03-02 00:52:00,28.0,24.9,30.07,NNW,330,16.1,16.1,88,0.00,CLR,,0.00,WeatherDisplay:10.37,2013-03-02 06:52:00,
2013-03-02 00:57:00,28.0,24.9,30.07,NNW,330,11.5,11.5,88,0.00,CLR,,0.00,WeatherDisplay:10.37,2013-03-02 06:57:00,
2013-03-02 01:02:00,28.0,24.9,30.07,NNW,327,6.9,6.9,88,0.00,CLR,,0.00,WeatherDisplay:10.37,2013-03-02 07:02:00,
2013-03-02 01:07:00,27.9,24.8,30.06,NNW,336,12.0,12.0,88,0.00,CLR,,0.00,WeatherDisplay:10.37,2013-03-02 07:07:00,
2013-03-02 01:12:00,27.8,24.7,30.06,NNW,329,12.7,12.7,88,0.00,CLR,,0.00,WeatherDisplay:10.37,2013-03-02 07:12:00,
2013-03-02 01:17:00,27.8,24.4,30.06,NNW,338,18.4,18.4,87,0.00,CLR,,0.00,WeatherDisplay:10.37,2013-03-02 07:17:00,
2013-03-02 01:22:00,27.9,24.5,30.06,NNW,344,13.8,13.8,87,0.00,CLR,,0.00,WeatherDisplay:10.37,2013-03-02 07:22:00,
2013-03-02 01:27:00,27.8,24.4,30.06,NNW,335,12.7,12.7,87,0.00,CLR,,0.00,WeatherDisplay:10.37,2013-03-02 07:27:00,
2013-03-02 01:32:00,27.7,24.3,30.06,NW,317,12.7,12.7,87,0.00,CLR,,0.00,WeatherDisplay:10.37,2013-03-02 07:32:00,
2013-03-02 01:37:00,27.7,24.3,30.06,NNW,342,15.0,15.0,87,0.00,CLR,,0.00,WeatherDisplay:10.37,2013-03-02 07:37:00,
2013-03-02 01:42:00,27.6,24.2,30.06,NNW,333,12.7,12.7,87,0.00,CLR,,0.00,WeatherDisplay:10.37,2013-03-02 07:42:00,
2013-03-02 01:47:00,27.7,24.3,30.06,NW,325,11.5,11.5,87,0.00,CLR,,0.00,WeatherDisplay:10.37,2013-03-02 07:47:00,
2013-03-02 01:52:00,27.7,24.3,30.06,NNW,329,12.7,12.7,87,0.00,CLR,,0.00,WeatherDisplay:10.37,2013-03-02 07:52:00,
2013-03-02 01:57:00,27.5,24.1,30.06,NNW,330,13.8,13.8,87,0.00,CLR,,0.00,WeatherDisplay:10.37,2013-03-02 07:57:00,
2013-03-02 02:02:00,27.5,24.1,30.06,NW,325,11.5,11.5,87,0.00,CLR,,0.00,WeatherDisplay:10.37,2013-03-02 08:02:00,
2013-03-02 02:08:00,27.4,24.0,30.06,NW,316,10.4,10.4,87,0.00,CLR,,0.00,WeatherDisplay:10.37,2013-03-02 08:08:00,
2013-03-02 02:13:00,27.4,24.0,30.06,NNW,336,17.3,17.3,87,0.00,CLR,,0.00,WeatherDisplay:10.37,2013-03-02 08:13:00,
2013-03-02 02:18:00,27.3,23.9,30.06,NW,324,18.4,18.4,87,0.00,CLR,,0.00,WeatherDisplay:10.37,2013-03-02 08:18:00,
2013-03-02 02:23:00,27.3,23.9,30.06,NW,324,12.7,12.7,87,0.00,CLR,,0.00,WeatherDisplay:10.37,2013-03-02 08:23:00,
2013-03-02 02:28:00,27.3,23.9,30.06,NW,314,13.8,13.8,87,0.00,CLR,,0.00,WeatherDisplay:10.37,2013-03-02 08:28:00,
2013-03-02 02:33:00,27.3,23.9,30.06,NW,325,11.5,11.5,87,0.00,CLR,,0.00,WeatherDisplay:10.37,2013-03-02 08:33:00,
2013-03-02 02:38:00,27.2,23.8,30.06,NNW,338,17.3,17.3,87,0.00,CLR,,0.00,WeatherDisplay:10.37,2013-03-02 08:38:00,
2013-03-02 02:43:00,27.2,23.8,30.06,NNW,327,11.5,11.5,87,0.00,CLR,,0.00,WeatherDisplay:10.37,2013-03-02 08:43:00,
2013-03-02 02:48:00,27.1,23.7,30.05,NW,321,17.3,17.3,87,0.00,CLR,,0.00,WeatherDisplay:10.37,2013-03-02 08:48:00,
2013-03-02 02:53:00,27.0,23.6,30.05,NNW,327,12.7,12.7,87,0.00,CLR,,0.00,WeatherDisplay:10.37,2013-03-02 08:53:00,
2013-03-02 02:58:00,27.0,23.6,30.05,NNW,333,17.3,17.3,87,0.00,CLR,,0.00,WeatherDisplay:10.37,2013-03-02 08:58:00,
2013-03-02 03:03:00,27.0,23.6,30.05,NW,323,12.0,12.0,87,0.00,CLR,,0.00,WeatherDisplay:10.37,2013-03-02 09:03:00,
2013-03-02 03:08:00,27.0,23.6,30.05,NNW,337,11.5,11.5,87,0.00,CLR,,0.00,WeatherDisplay:10.37,2013-03-02 09:08:00,
2013-03-02 03:13:00,27.0,23.6,30.05,NNW,340,10.0,10.0,87,0.00,CLR,,0.00,WeatherDisplay:10.37,2013-03-02 09:13:00,
2013-03-02 03:18:00,27.0,23.6,30.05,NNW,329,12.7,12.7,87,0.00,CLR,,0.00,WeatherDisplay:10.37,2013-03-02 09:18:00,
2013-03-02 03:23:00,27.0,23.6,30.05,NNW,329,11.5,11.5,87,0.00,CLR,,0.00,WeatherDisplay:10.37,2013-03-02 09:23:00,
2013-03-02 03:28:00,26.9,23.5,30.05,NNW,333,11.5,11.5,87,0.00,CLR,,0.00,WeatherDisplay:10.37,2013-03-02 09:28:00,
2013-03-02 03:33:00,26.9,23.5,30.06,NNW,329,16.1,16.1,87,0.00,CLR,,0.00,WeatherDisplay:10.37,2013-03-02 09:33:00,
2013-03-02 03:38:00,26.9,23.5,30.05,NW,326,11.5,11.5,87,0.00,CLR,,0.00,WeatherDisplay:10.37,2013-03-02 09:38:00,
2013-03-02 03:43:00,27.0,23.6,30.05,NNW,336,5.8,5.8,87,0.00,CLR,,0.00,WeatherDisplay:10.37,2013-03-02 09:43:00,
2013-03-02 03:48:00,27.0,23.6,30.05,NNW,329,11.5,11.5,87,0.00,CLR,,0.00,WeatherDisplay:10.37,2013-03-02 09:48:00,
2013-03-02 03:53:00,27.1,23.7,30.05,NW,322,17.0,17.0,87,0.00,CLR,,0.00,WeatherDisplay:10.37,2013-03-02 09:53:00,
2013-03-02 03:58:00,27.0,23.6,30.05,NNW,336,12.7,12.7,87,0.00,CLR,,0.00,WeatherDisplay:10.37,2013-03-02 09:58:00,
2013-03-02 04:03:00,27.0,23.6,30.05,NNW,338,11.5,11.5,87,0.00,CLR,,0.00,WeatherDisplay:10.37,2013-03-02 10:03:00,
2013-03-02 04:10:00,27.0,23.6,30.05,NNW,327,11.0,11.0,87,0.00,CLR,,0.00,WeatherDisplay:10.37,2013-03-02 10:10:00,
2013-03-02 04:15:00,27.0,23.6,30.05,NNW,337,8.0,14.0,87,0.00,CLR,,0.00,WeatherDisplay:10.37,2013-03-02 10:15:00,
2013-03-02 04:20:00,27.1,23.7,30.05,North,9,13.8,13.8,87,0.00,CLR,,0.00,WeatherDisplay:10.37,2013-03-02 10:20:00,
2013-03-02 04:25:00,27.0,23.6,30.05,NNW,342,11.5,11.5,87,0.00,CLR,,0.00,WeatherDisplay:10.37,2013-03-02 10:25:00,
2013-03-02 04:30:00,27.0,23.6,30.05,NNW,342,11.5,11.5,87,0.00,CLR,,0.00,WeatherDisplay:10.37,2013-03-02 10:30:00,
2013-03-02 04:36:00,27.0,23.6,30.05,NNW,342,15.0,15.0,87,0.00,CLR,,0.00,WeatherDisplay:10.37,2013-03-02 10:36:00,
2013-03-02 04:41:00,27.0,23.6,30.05,North,5,15.0,15.0,87,0.00,CLR,,0.00,WeatherDisplay:10.37,2013-03-02 10:41:00,
2013-03-02 04:46:00,27.1,23.7,30.05,NNW,327,15.0,15.0,87,0.00,CLR,,0.00,WeatherDisplay:10.37,2013-03-02 10:46:00,
2013-03-02 04:51:00,27.1,23.7,30.05,NNW,346,16.1,16.1,87,0.00,CLR,,0.00,WeatherDisplay:10.37,2013-03-02 10:51:00,
2013-03-02 04:56:00,27.1,23.7,30.05,NNW,343,11.5,11.5,87,0.00,CLR,,0.00,WeatherDisplay:10.37,2013-03-02 10:56:00,
2013-03-02 05:01:00,27.1,23.7,30.05,NNW,347,13.8,13.8,87,0.00,CLR,,0.00,WeatherDisplay:10.37,2013-03-02 11:01:00,
2013-03-02 05:06:00,27.1,23.7,30.05,North,355,12.7,12.7,87,0.00,CLR,,0.00,WeatherDisplay:10.37,2013-03-02 11:06:00,
2013-03-02 05:11:00,27.2,23.8,30.05,NNW,329,11.5,11.5,87,0.00,CLR,,0.00,WeatherDisplay:10.37,2013-03-02 11:11:00,
2013-03-02 05:16:00,27.2,23.8,30.05,NNW,346,12.0,12.0,87,0.00,CLR,,0.00,WeatherDisplay:10.37,2013-03-02 11:16:00,
2013-03-02 05:21:00,27.2,23.8,30.05,NW,325,11.5,11.5,87,0.00,CLR,,0.00,WeatherDisplay:10.37,2013-03-02 11:21:00,
2013-03-02 05:26:00,27.2,23.8,30.05,NNW,333,13.8,13.8,87,0.00,CLR,,0.00,WeatherDisplay:10.37,2013-03-02 11:26:00,
2013-03-02 05:31:00,27.3,23.9,30.06,North,349,10.4,10.4,87,0.00,CLR,,0.00,WeatherDisplay:10.37,2013-03-02 11:31:00,
2013-03-02 05:36:00,27.3,23.9,30.06,NNW,335,10.4,10.4,87,0.00,CLR,,0.00,WeatherDisplay:10.37,2013-03-02 11:36:00,
2013-03-02 05:41:00,27.2,23.8,30.06,NNW,343,16.1,16.1,87,0.00,CLR,,0.00,WeatherDisplay:10.37,2013-03-02 11:41:00,
2013-03-02 05:46:00,27.2,23.8,30.06,NNW,346,11.5,11.5,87,0.00,CLR,,0.00,WeatherDisplay:10.37,2013-03-02 11:46:00,
2013-03-02 05:51:00,27.2,23.8,30.06,NNW,344,13.8,13.8,87,0.00,CLR,,0.00,WeatherDisplay:10.37,2013-03-02 11:51:00,
2013-03-02 05:56:00,27.2,23.8,30.06,NNW,346,11.5,11.5,87,0.00,CLR,,0.00,WeatherDisplay:10.37,2013-03-02 11:56:00,
2013-03-02 06:01:00,27.2,23.8,30.06,NNW,346,11.5,11.5,87,0.00,CLR,,0.00,WeatherDisplay:10.37,2013-03-02 12:01:00,
2013-03-02 06:06:00,27.2,23.8,30.06,NNW,338,12.7,12.7,87,0.00,CLR,,0.00,WeatherDisplay:10.37,2013-03-02 12:06:00,
2013-03-02 06:11:00,27.3,23.9,30.06,NNW,339,11.5,11.5,87,0.00,CLR,,0.00,WeatherDisplay:10.37,2013-03-02 12:11:00,
2013-03-02 06:16:00,27.3,23.9,30.06,NNW,346,9.2,9.2,87,0.00,CLR,,0.00,WeatherDisplay:10.37,2013-03-02 12:16:00,
2013-03-02 06:21:00,27.3,23.9,30.06,NNW,344,9.2,9.2,87,0.00,CLR,,0.00,WeatherDisplay:10.37,2013-03-02 12:21:00,
2013-03-02 06:26:00,27.3,23.9,30.06,NNW,338,6.9,6.9,87,0.00,CLR,,0.00,WeatherDisplay:10.37,2013-03-02 12:26:00,
2013-03-02 06:31:00,27.4,24.0,30.06,NNW,341,5.8,5.8,87,0.00,CLR,,0.00,WeatherDisplay:10.37,2013-03-02 12:31:00,
2013-03-02 06:36:00,27.4,24.0,30.06,NNW,346,9.2,9.2,87,0.00,CLR,,0.00,WeatherDisplay:10.37,2013-03-02 12:36:00,
2013-03-02 06:41:00,27.4,24.0,30.07,NNW,337,6.0,10.0,87,0.00,CLR,,0.00,WeatherDisplay:10.37,2013-03-02 12:41:00,
2013-03-02 06:46:00,27.4,24.0,30.07,NW,311,8.1,8.1,87,0.00,CLR,,0.00,WeatherDisplay:10.37,2013-03-02 12:46:00,
2013-03-02 06:51:00,27.4,24.0,30.07,NW,317,10.4,10.4,87,0.00,CLR,,0.00,WeatherDisplay:10.37,2013-03-02 12:51:00,
2013-03-02 06:56:00,27.4,24.0,30.07,NW,311,9.0,9.0,87,0.00,CLR,,0.00,WeatherDisplay:10.37,2013-03-02 12:56:00,
2013-03-02 07:01:00,27.4,24.3,30.07,NNW,328,10.4,10.4,88,0.00,CLR,,0.00,WeatherDisplay:10.37,2013-03-02 13:01:00,
2013-03-02 07:06:00,27.4,24.3,30.07,NNW,339,11.5,11.5,88,0.00,CLR,,0.00,WeatherDisplay:10.37,2013-03-02 13:06:00,
2013-03-02 07:11:00,27.5,24.4,30.07,NW,324,10.4,10.4,88,0.00,CLR,,0.00,WeatherDisplay:10.37,2013-03-02 13:11:00,
2013-03-02 07:16:00,27.4,24.3,30.07,NW,317,8.1,8.1,88,0.00,CLR,,0.00,WeatherDisplay:10.37,2013-03-02 13:16:00,
2013-03-02 07:21:00,27.4,24.3,30.07,NW,319,12.7,12.7,88,0.00,CLR,,0.00,WeatherDisplay:10.37,2013-03-02 13:21:00,
2013-03-02 07:26:00,27.4,24.3,30.08,NNW,333,11.5,11.5,88,0.00,CLR,,0.00,WeatherDisplay:10.37,2013-03-02 13:26:00,
2013-03-02 07:31:00,27.4,24.3,30.08,NNW,329,10.4,10.4,88,0.00,CLR,,0.00,WeatherDisplay:10.37,2013-03-02 13:31:00,
2013-03-02 07:36:00,27.4,24.3,30.08,NNW,333,5.0,5.0,88,0.00,CLR,,0.00,WeatherDisplay:10.37,2013-03-02 13:36:00,
2013-03-02 07:41:00,27.4,24.3,30.08,NNW,332,8.1,8.1,88,0.00,CLR,,0.00,WeatherDisplay:10.37,2013-03-02 13:41:00,
2013-03-02 07:46:00,27.4,24.6,30.08,NNW,329,8.1,8.1,89,0.00,CLR,,0.00,WeatherDisplay:10.37,2013-03-02 13:46:00,
2013-03-02 07:51:00,27.6,24.8,30.08,NNW,331,10.0,10.0,89,0.00,CLR,,0.00,WeatherDisplay:10.37,2013-03-02 13:51:00,
2013-03-02 07:56:00,27.5,24.7,30.08,NNW,336,12.7,12.7,89,0.00,CLR,,0.00,WeatherDisplay:10.37,2013-03-02 13:56:00,
2013-03-02 08:01:00,27.5,24.7,30.09,North,355,10.4,10.4,89,0.00,CLR,,0.00,WeatherDisplay:10.37,2013-03-02 14:01:00,
2013-03-02 08:06:00,27.5,24.7,30.08,NW,326,11.5,11.5,89,0.00,CLR,,0.00,WeatherDisplay:10.37,2013-03-02 14:06:00,
2013-03-02 08:11:00,27.6,24.8,30.08,NNW,330,10.4,10.4,89,0.00,CLR,,0.00,WeatherDisplay:10.37,2013-03-02 14:11:00,
2013-03-02 08:16:00,27.6,24.8,30.09,NNW,338,10.0,10.0,89,0.00,CLR,,0.00,WeatherDisplay:10.37,2013-03-02 14:16:00,
2013-03-02 08:21:00,27.5,24.4,30.08,North,355,12.7,12.7,88,0.00,CLR,,0.00,WeatherDisplay:10.37,2013-03-02 14:21:00,
2013-03-02 08:26:00,27.5,24.7,30.09,NNW,328,11.5,11.5,89,0.00,CLR,,0.00,WeatherDisplay:10.37,2013-03-02 14:26:00,
2013-03-02 08:31:00,27.6,24.8,30.09,NNW,344,10.4,10.4,89,0.00,CLR,,0.00,WeatherDisplay:10.37,2013-03-02 14:31:00,
2013-03-02 08:36:00,27.5,24.7,30.09,North,355,11.5,11.5,89,0.00,CLR,,0.00,WeatherDisplay:10.37,2013-03-02 14:36:00,
2013-03-02 08:41:00,27.6,24.8,30.09,NNW,342,9.2,9.2,89,0.00,CLR,,0.00,WeatherDisplay:10.37,2013-03-02 14:41:00,
2013-03-02 08:46:00,27.7,25.2,30.09,NNW,346,5.0,5.0,90,0.00,CLR,,0.00,WeatherDisplay:10.37,2013-03-02 14:46:00,
2013-03-02 08:51:00,27.8,25.2,30.09,North,350,5.0,5.0,90,0.00,CLR,,0.00,WeatherDisplay:10.37,2013-03-02 14:51:00,
2013-03-02 08:56:00,27.8,25.2,30.09,NNW,344,10.4,10.4,90,0.00,CLR,,0.00,WeatherDisplay:10.37,2013-03-02 14:56:00,
2013-03-02 09:01:00,27.9,25.1,30.09,NNW,342,4.6,4.6,89,0.00,CLR,,0.00,WeatherDisplay:10.37,2013-03-02 15:01:00,
2013-03-02 09:06:00,27.8,25.0,30.09,NNW,347,10.0,10.0,89,0.00,CLR,,0.00,WeatherDisplay:10.37,2013-03-02 15:06:00,
2013-03-02 09:11:00,28.0,25.2,30.09,NNW,339,6.9,6.9,89,0.00,CLR,,0.00,WeatherDisplay:10.37,2013-03-02 15:11:00,
2013-03-02 09:16:00,28.2,25.4,30.09,North,9,9.2,9.2,89,0.00,CLR,,0.00,WeatherDisplay:10.37,2013-03-02 15:16:00,
2013-03-02 09:21:00,28.3,25.2,30.09,NNW,338,12.7,12.7,88,0.00,CLR,,0.00,WeatherDisplay:10.37,2013-03-02 15:21:00,
2013-03-02 09:26:00,28.3,25.2,30.09,NNW,342,10.0,10.0,88,0.00,CLR,,0.00,WeatherDisplay:10.37,2013-03-02 15:26:00,
2013-03-02 09:31:00,28.3,24.9,30.09,NNW,345,9.0,9.0,87,0.00,CLR,,0.00,WeatherDisplay:10.37,2013-03-02 15:31:00,
2013-03-02 09:36:00,28.5,24.8,30.09,NNE,22,7.0,7.0,86,0.00,CLR,,0.00,WeatherDisplay:10.37,2013-03-02 15:36:00,
2013-03-02 09:41:00,28.7,25.0,30.09,NNW,344,9.2,9.2,86,0.00,CLR,,0.00,WeatherDisplay:10.37,2013-03-02 15:41:00,
2013-03-02 09:46:00,28.8,25.1,30.09,NNW,328,10.4,10.4,86,0.00,CLR,,0.00,WeatherDisplay:10.37,2013-03-02 15:46:00,
2013-03-02 09:51:00,28.8,24.9,30.09,NNW,331,11.5,11.5,85,0.00,CLR,,0.00,WeatherDisplay:10.37,2013-03-02 15:51:00,
2013-03-02 09:56:00,28.9,25.0,30.09,NNW,329,10.4,10.4,85,0.00,CLR,,0.00,WeatherDisplay:10.37,2013-03-02 15:56:00,
2013-03-02 10:01:00,28.9,25.0,30.09,NW,321,10.4,10.4,85,0.00,CLR,,0.00,WeatherDisplay:10.37,2013-03-02 16:01:00,
2013-03-02 10:06:00,29.0,25.1,30.09,NW,310,8.1,8.1,85,0.00,CLR,,0.00,WeatherDisplay:10.37,2013-03-02 16:06:00,
2013-03-02 10:11:00,29.1,25.2,30.09,NW,321,13.0,13.0,85,0.00,CLR,,0.00,WeatherDisplay:10.37,2013-03-02 16:11:00,
2013-03-02 10:16:00,28.9,24.1,30.09,NNW,328,19.6,19.6,82,0.00,CLR,,0.00,WeatherDisplay:10.37,2013-03-02 16:16:00,
2013-03-02 10:21:00,29.0,24.5,30.09,NNW,329,13.8,13.8,83,0.00,CLR,,0.00,WeatherDisplay:10.37,2013-03-02 16:21:00,
2013-03-02 10:26:00,29.1,24.3,30.09,NNW,337,16.1,16.1,82,0.00,CLR,,0.00,WeatherDisplay:10.37,2013-03-02 16:26:00,
2013-03-02 10:31:00,29.3,24.8,30.09,NNW,342,14.0,14.0,83,0.00,CLR,,0.00,WeatherDisplay:10.37,2013-03-02 16:31:00,
2013-03-02 10:36:00,29.3,24.8,30.09,NNW,333,11.5,11.5,83,0.00,CLR,,0.00,WeatherDisplay:10.37,2013-03-02 16:36:00,
2013-03-02 10:41:00,29.2,25.0,30.09,NW,324,13.8,13.8,84,0.00,CLR,,0.00,WeatherDisplay:10.37,2013-03-02 16:41:00,
2013-03-02 10:46:00,29.3,25.1,30.09,NNW,340,14.0,14.0,84,0.00,CLR,,0.00,WeatherDisplay:10.37,2013-03-02 16:46:00,
2013-03-02 10:51:00,29.3,25.1,30.09,WNW,288,16.1,16.1,84,0.00,CLR,,0.00,WeatherDisplay:10.37,2013-03-02 16:51:00,
2013-03-02 10:56:00,29.1,24.6,30.09,NW,319,19.6,19.6,83,0.00,CLR,,0.00,WeatherDisplay:10.37,2013-03-02 16:56:00,
2013-03-02 11:01:00,29.0,24.5,30.09,NW,321,12.7,12.7,83,0.00,CLR,,0.00,WeatherDisplay:10.37,2013-03-02 17:01:00,
2013-03-02 11:06:00,29.2,24.7,30.09,NNW,342,19.6,19.6,83,0.00,CLR,,0.00,WeatherDisplay:10.37,2013-03-02 17:06:00,
2013-03-02 11:11:00,29.1,24.9,30.09,NW,321,15.0,15.0,84,0.00,CLR,,0.00,WeatherDisplay:10.37,2013-03-02 17:11:00,
2013-03-02 11:16:00,29.0,25.1,30.09,NW,320,19.6,19.6,85,0.00,CLR,,0.00,WeatherDisplay:10.37,2013-03-02 17:16:00,
2013-03-02 11:21:00,28.7,25.0,30.09,NW,317,18.4,18.4,86,0.00,CLR,,0.00,WeatherDisplay:10.37,2013-03-02 17:21:00,
2013-03-02 11:26:00,28.5,25.1,30.09,NW,326,13.8,13.8,87,0.00,CLR,,0.00,WeatherDisplay:10.37,2013-03-02 17:26:00,
2013-03-02 11:31:00,28.4,25.3,30.09,NNW,334,10.4,10.4,88,0.00,CLR,,0.00,WeatherDisplay:10.37,2013-03-02 17:31:00,
2013-03-02 11:36:00,28.6,25.8,30.09,NNW,338,12.7,12.7,89,0.00,CLR,,0.00,WeatherDisplay:10.37,2013-03-02 17:36:00,
2013-03-02 11:41:00,28.8,26.0,30.09,NW,311,16.1,16.1,89,0.00,CLR,,0.00,WeatherDisplay:10.37,2013-03-02 17:41:00,
2013-03-02 11:46:00,29.0,25.9,30.09,NNW,335,11.5,11.5,88,0.00,CLR,,0.00,WeatherDisplay:10.37,2013-03-02 17:46:00,
2013-03-02 11:51:00,29.3,26.2,30.09,NNW,338,19.6,19.6,88,0.00,CLR,,0.00,WeatherDisplay:10.37,2013-03-02 17:51:00,
2013-03-02 11:56:00,28.9,25.5,30.09,NNW,334,18.4,18.4,87,0.00,CLR,,0.00,WeatherDisplay:10.37,2013-03-02 17:56:00,
2013-03-02 12:01:00,28.9,25.5,30.09,NNW,336,13.8,13.8,87,0.00,CLR,,0.00,WeatherDisplay:10.37,2013-03-02 18:01:00,
2013-03-02 12:06:00,29.2,25.8,30.09,North,5,15.0,15.0,87,0.00,CLR,,0.00,WeatherDisplay:10.37,2013-03-02 18:06:00,
2013-03-02 12:11:00,29.6,26.5,30.08,NNW,327,9.2,9.2,88,0.00,CLR,,0.00,WeatherDisplay:10.37,2013-03-02 18:11:00,
2013-03-02 12:16:00,29.6,25.6,30.08,NNW,343,13.8,13.8,85,0.00,CLR,,0.00,WeatherDisplay:10.37,2013-03-02 18:16:00,
2013-03-02 12:21:00,29.7,26.0,30.08,NNW,346,16.1,16.1,86,0.00,CLR,,0.00,WeatherDisplay:10.37,2013-03-02 18:21:00,
2013-03-02 12:26:00,29.7,25.8,30.08,NNW,337,13.0,20.0,85,0.00,CLR,,0.00,WeatherDisplay:10.37,2013-03-02 18:26:00,
2013-03-02 12:31:00,29.7,25.5,30.08,NNW,340,15.0,15.0,84,0.00,CLR,,0.00,WeatherDisplay:10.37,2013-03-02 18:31:00,
2013-03-02 12:36:00,29.4,25.2,30.08,NNW,335,17.3,17.3,84,0.00,CLR,,0.00,WeatherDisplay:10.37,2013-03-02 18:36:00,
2013-03-02 12:41:00,29.3,24.8,30.08,NNW,347,19.6,19.6,83,0.00,CLR,,0.00,WeatherDisplay:10.37,2013-03-02 18:41:00,
2013-03-02 12:46:00,29.1,25.2,30.08,NNW,329,17.3,17.3,85,0.00,CLR,,0.00,WeatherDisplay:10.37,2013-03-02 18:46:00,
2013-03-02 12:51:00,28.8,25.1,30.08,North,350,17.3,17.3,86,0.00,CLR,,0.00,WeatherDisplay:10.37,2013-03-02 18:51:00,
2013-03-02 12:57:00,28.7,25.0,30.08,NNW,333,13.8,13.8,86,0.00,CLR,,0.00,WeatherDisplay:10.37,2013-03-02 18:57:00,
2013-03-02 13:02:00,28.9,25.5,30.07,NNW,342,13.8,13.8,87,0.00,CLR,,0.00,WeatherDisplay:10.37,2013-03-02 19:02:00,
2013-03-02 13:07:00,28.9,25.5,30.07,NNW,327,16.1,16.1,87,0.00,CLR,,0.00,WeatherDisplay:10.37,2013-03-02 19:07:00,
2013-03-02 13:12:00,29.2,25.8,30.07,NNW,348,11.0,11.0,87,0.00,CLR,,0.00,WeatherDisplay:10.37,2013-03-02 19:12:00,
2013-03-02 13:17:00,29.4,25.7,30.07,NW,315,18.4,18.4,86,0.00,CLR,,0.00,WeatherDisplay:10.37,2013-03-02 19:17:00,
2013-03-02 13:22:00,29.6,25.4,30.07,NNW,347,16.1,16.1,84,0.00,CLR,,0.00,WeatherDisplay:10.37,2013-03-02 19:22:00,
2013-03-02 13:27:00,29.7,25.2,30.07,NW,323,15.0,15.0,83,0.00,CLR,,0.00,WeatherDisplay:10.37,2013-03-02 19:27:00,
2013-03-02 13:32:00,29.8,25.0,30.07,NNW,327,13.8,13.8,82,0.00,CLR,,0.00,WeatherDisplay:10.37,2013-03-02 19:32:00,
2013-03-02 13:37:00,30.0,25.2,30.07,NNW,328,18.4,18.4,82,0.00,CLR,,0.00,WeatherDisplay:10.37,2013-03-02 19:37:00,
2013-03-02 13:42:00,30.1,25.0,30.06,WNW,303,15.0,15.0,81,0.00,CLR,,0.00,WeatherDisplay:10.37,2013-03-02 19:42:00,
2013-03-02 13:47:00,30.4,25.3,30.06,NW,311,18.0,18.0,81,0.00,CLR,,0.00,WeatherDisplay:10.37,2013-03-02 19:47:00,
2013-03-02 13:52:00,30.2,24.8,30.07,WNW,296,18.4,18.4,80,0.00,CLR,,0.00,WeatherDisplay:10.37,2013-03-02 19:52:00,
2013-03-02 13:57:00,29.9,24.8,30.07,NNW,327,12.7,12.7,81,0.00,CLR,,0.00,WeatherDisplay:10.37,2013-03-02 19:57:00,
2013-03-02 14:02:00,29.7,25.2,30.07,NW,306,19.6,19.6,83,0.00,CLR,,0.00,WeatherDisplay:10.37,2013-03-02 20:02:00,
2013-03-02 14:07:00,29.1,24.3,30.07,NW,323,20.7,20.7,82,0.00,CLR,,0.00,WeatherDisplay:10.37,2013-03-02 20:07:00,
2013-03-02 14:12:00,28.8,24.0,30.07,NW,322,18.4,18.4,82,0.00,CLR,,0.00,WeatherDisplay:10.37,2013-03-02 20:12:00,
2013-03-02 14:17:00,28.9,24.1,30.07,NNW,331,16.1,16.1,82,0.00,CLR,,0.00,WeatherDisplay:10.37,2013-03-02 20:17:00,
2013-03-02 14:22:00,29.1,24.3,30.07,NW,325,18.4,18.4,82,0.00,CLR,,0.00,WeatherDisplay:10.37,2013-03-02 20:22:00,
2013-03-02 14:27:00,29.4,24.6,30.07,NW,304,15.0,15.0,82,0.00,CLR,,0.00,WeatherDisplay:10.37,2013-03-02 20:27:00,
2013-03-02 14:32:00,29.5,24.4,30.07,WNW,294,17.3,17.3,81,0.00,CLR,,0.00,WeatherDisplay:10.37,2013-03-02 20:32:00,
2013-03-02 14:37:00,29.8,24.7,30.07,NW,311,11.5,11.5,81,0.00,CLR,,0.00,WeatherDisplay:10.37,2013-03-02 20:37:00,
2013-03-02 14:42:00,30.1,24.7,30.07,NNW,343,13.8,13.8,80,0.00,CLR,,0.00,WeatherDisplay:10.37,2013-03-02 20:42:00,
2013-03-02 14:47:00,29.6,24.2,30.07,NW,317,17.3,17.3,80,0.00,CLR,,0.00,WeatherDisplay:10.37,2013-03-02 20:47:00,
2013-03-02 14:52:00,29.7,24.3,30.07,NW,307,12.7,12.7,80,0.00,CLR,,0.00,WeatherDisplay:10.37,2013-03-02 20:52:00,
2013-03-02 14:57:00,29.9,24.8,30.07,NNW,329,19.0,19.0,81,0.00,CLR,,0.00,WeatherDisplay:10.37,2013-03-02 20:57:00,
2013-03-02 15:02:00,29.8,24.4,30.07,NW,325,17.3,17.3,80,0.00,CLR,,0.00,WeatherDisplay:10.37,2013-03-02 21:02:00,
2013-03-02 15:07:00,29.8,24.7,30.07,NNW,335,18.4,18.4,81,0.00,CLR,,0.00,WeatherDisplay:10.37,2013-03-02 21:07:00,
2013-03-02 15:12:00,29.9,24.5,30.07,NNW,337,18.4,18.4,80,0.00,CLR,,0.00,WeatherDisplay:10.37,2013-03-02 21:12:00,
2013-03-02 15:17:00,29.9,24.2,30.07,NW,325,17.3,17.3,79,0.00,CLR,,0.00,WeatherDisplay:10.37,2013-03-02 21:17:00,
2013-03-02 15:22:00,29.8,24.1,30.08,NNW,335,19.6,19.6,79,0.00,CLR,,0.00,WeatherDisplay:10.37,2013-03-02 21:22:00,
2013-03-02 15:27:00,29.8,24.4,30.08,NNW,336,19.6,19.6,80,0.00,CLR,,0.00,WeatherDisplay:10.37,2013-03-02 21:27:00,
2013-03-02 15:32:00,29.8,24.7,30.08,NNW,344,19.6,19.6,81,0.00,CLR,,0.00,WeatherDisplay:10.37,2013-03-02 21:32:00,
2013-03-02 15:37:00,29.6,24.5,30.08,NW,326,15.0,15.0,81,0.00,CLR,,0.00,WeatherDisplay:10.37,2013-03-02 21:37:00,
2013-03-02 15:42:00,29.7,24.6,30.08,NNW,335,13.0,13.0,81,0.00,CLR,,0.00,WeatherDisplay:10.37,2013-03-02 21:42:00,
2013-03-02 15:47:00,29.7,24.3,30.08,NW,310,19.6,19.6,80,0.00,CLR,,0.00,WeatherDisplay:10.37,2013-03-02 21:47:00,
2013-03-02 15:52:00,29.8,24.7,30.08,NW,310,17.3,17.3,81,0.00,CLR,,0.00,WeatherDisplay:10.37,2013-03-02 21:52:00,
2013-03-02 15:57:00,29.5,24.1,30.08,NW,323,19.6,19.6,80,0.00,CLR,,0.00,WeatherDisplay:10.37,2013-03-02 21:57:00,
2013-03-02 16:02:00,29.4,24.3,30.08,NW,326,17.3,17.3,81,0.00,CLR,,0.00,WeatherDisplay:10.37,2013-03-02 22:02:00,
2013-03-02 16:07:00,29.2,24.1,30.08,NW,315,19.6,19.6,81,0.00,CLR,,0.00,WeatherDisplay:10.37,2013-03-02 22:07:00,
2013-03-02 16:12:00,28.9,24.1,30.08,NNW,327,17.3,17.3,82,0.00,CLR,,0.00,WeatherDisplay:10.37,2013-03-02 22:12:00,
2013-03-02 16:17:00,28.9,24.4,30.08,NW,309,15.0,15.0,83,0.00,CLR,,0.00,WeatherDisplay:10.37,2013-03-02 22:17:00,
2013-03-02 16:22:00,28.9,24.4,30.08,NW,325,13.8,13.8,83,0.00,CLR,,0.00,WeatherDisplay:10.37,2013-03-02 22:22:00,
2013-03-02 16:27:00,29.0,24.2,30.09,NW,304,19.6,19.6,82,0.00,CLR,,0.00,WeatherDisplay:10.37,2013-03-02 22:27:00,
2013-03-02 16:32:00,29.0,24.2,30.08,WNW,299,15.0,15.0,82,0.00,CLR,,0.00,WeatherDisplay:10.37,2013-03-02 22:32:00,
2013-03-02 16:37:00,29.1,24.0,30.08,NW,326,11.5,11.5,81,0.00,CLR,,0.00,WeatherDisplay:10.37,2013-03-02 22:37:00,
2013-03-02 16:42:00,29.3,24.2,30.08,NW,306,13.8,13.8,81,0.00,CLR,,0.00,WeatherDisplay:10.37,2013-03-02 22:42:00,
2013-03-02 16:47:00,29.4,24.0,30.08,NW,308,11.5,11.5,80,0.00,CLR,,0.00,WeatherDisplay:10.37,2013-03-02 22:47:00,
2013-03-02 16:52:00,29.6,24.2,30.09,NW,312,11.5,11.5,80,0.00,CLR,,0.00,WeatherDisplay:10.37,2013-03-02 22:52:00,
2013-03-02 16:57:00,29.7,24.0,30.09,NW,326,11.5,11.5,79,0.00,CLR,,0.00,WeatherDisplay:10.37,2013-03-02 22:57:00,
2013-03-02 17:02:00,29.7,23.4,30.09,NNW,347,17.3,17.3,77,0.00,CLR,,0.00,WeatherDisplay:10.37,2013-03-02 23:02:00,
2013-03-02 17:08:00,29.7,23.4,30.08,NNW,336,15.0,15.0,77,0.00,CLR,,0.00,WeatherDisplay:10.37,2013-03-02 23:08:00,
2013-03-02 17:12:00,29.7,23.4,30.09,NW,309,15.0,15.0,77,0.00,CLR,,0.00,WeatherDisplay:10.37,2013-03-02 23:12:00,
2013-03-02 17:18:00,29.7,23.4,30.08,NNW,336,16.0,16.0,77,0.00,CLR,,0.00,WeatherDisplay:10.37,2013-03-02 23:18:00,
2013-03-02 17:23:00,29.8,23.2,30.09,NW,309,15.0,15.0,76,0.00,CLR,,0.00,WeatherDisplay:10.37,2013-03-02 23:23:00,
2013-03-02 17:28:00,29.7,23.1,30.09,NW,321,16.1,16.1,76,0.00,CLR,,0.00,WeatherDisplay:10.37,2013-03-02 23:28:00,
2013-03-02 17:33:00,29.7,23.1,30.09,NW,317,17.3,17.3,76,0.00,CLR,,0.00,WeatherDisplay:10.37,2013-03-02 23:33:00,
2013-03-02 17:38:00,29.6,23.0,30.09,West,276,13.0,13.0,76,0.00,CLR,,0.00,WeatherDisplay:10.37,2013-03-02 23:38:00,
2013-03-02 17:43:00,29.6,22.6,30.09,NW,321,12.7,12.7,75,0.00,CLR,,0.00,WeatherDisplay:10.37,2013-03-02 23:43:00,
2013-03-02 17:48:00,29.6,22.6,30.09,NW,316,12.7,12.7,75,0.00,CLR,,0.00,WeatherDisplay:10.37,2013-03-02 23:48:00,
2013-03-02 17:53:00,29.6,22.6,30.09,NW,323,12.7,12.7,75,0.00,CLR,,0.00,WeatherDisplay:10.37,2013-03-02 23:53:00,
2013-03-02 17:58:00,29.5,22.6,30.09,NNW,327,19.6,19.6,75,0.00,CLR,,0.00,WeatherDisplay:10.37,2013-03-02 23:58:00,
2013-03-02 18:03:00,29.4,22.1,30.09,NW,323,19.6,19.6,74,0.00,CLR,,0.00,WeatherDisplay:10.37,2013-03-03 00:03:00,
2013-03-02 18:08:00,29.3,22.4,30.09,NW,321,18.4,18.4,75,0.00,CLR,,0.00,WeatherDisplay:10.37,2013-03-03 00:08:00,
2013-03-02 18:13:00,29.3,22.4,30.09,NW,326,18.0,18.0,75,0.00,CLR,,0.00,WeatherDisplay:10.37,2013-03-03 00:13:00,
2013-03-02 18:18:00,29.2,22.6,30.10,NNW,338,17.3,17.3,76,0.00,CLR,,0.00,WeatherDisplay:10.37,2013-03-03 00:18:00,
2013-03-02 18:23:00,29.2,22.6,30.09,NW,325,11.5,11.5,76,0.00,CLR,,0.00,WeatherDisplay:10.37,2013-03-03 00:23:00,
2013-03-02 18:28:00,29.1,22.5,30.10,NW,304,13.8,13.8,76,0.00,CLR,,0.00,WeatherDisplay:10.37,2013-03-03 00:28:00,
2013-03-02 18:33:00,29.0,22.4,30.10,NW,322,19.6,19.6,76,0.00,CLR,,0.00,WeatherDisplay:10.37,2013-03-03 00:33:00,
2013-03-02 18:38:00,28.9,22.3,30.09,NW,323,17.3,17.3,76,0.00,CLR,,0.00,WeatherDisplay:10.37,2013-03-03 00:38:00,
2013-03-02 18:43:00,28.8,22.2,30.10,NW,326,13.8,13.8,76,0.00,CLR,,0.00,WeatherDisplay:10.37,2013-03-03 00:43:00,
2013-03-02 18:48:00,28.8,22.5,30.10,NW,325,9.2,9.2,77,0.00,CLR,,0.00,WeatherDisplay:10.37,2013-03-03 00:48:00,
2013-03-02 18:53:00,28.7,22.4,30.10,NW,304,15.0,15.0,77,0.00,CLR,,0.00,WeatherDisplay:10.37,2013-03-03 00:53:00,
2013-03-02 18:58:00,28.6,22.0,30.09,NW,306,16.1,16.1,76,0.00,CLR,,0.00,WeatherDisplay:10.37,2013-03-03 00:58:00,
2013-03-02 19:03:00,28.6,22.3,30.09,NW,319,15.0,15.0,77,0.00,CLR,,0.00,WeatherDisplay:10.37,2013-03-03 01:03:00,
2013-03-02 19:08:00,28.5,22.2,30.09,NW,311,17.3,17.3,77,0.00,CLR,,0.00,WeatherDisplay:10.37,2013-03-03 01:08:00,
2013-03-02 19:13:00,28.5,22.2,30.10,NW,313,15.0,15.0,77,0.00,CLR,,0.00,WeatherDisplay:10.37,2013-03-03 01:13:00,
2013-03-02 19:18:00,28.5,22.2,30.09,NNW,327,14.0,14.0,77,0.00,CLR,,0.00,WeatherDisplay:10.37,2013-03-03 01:18:00,
2013-03-02 19:23:00,28.4,21.8,30.09,NW,311,16.1,16.1,76,0.00,CLR,,0.00,WeatherDisplay:10.37,2013-03-03 01:23:00,
2013-03-02 19:28:00,28.4,22.1,30.09,WNW,301,11.5,11.5,77,0.00,CLR,,0.00,WeatherDisplay:10.37,2013-03-03 01:28:00,
2013-03-02 19:33:00,28.3,21.7,30.10,NW,309,12.7,12.7,76,0.00,CLR,,0.00,WeatherDisplay:10.37,2013-03-03 01:33:00,
2013-03-02 19:38:00,28.3,21.7,30.10,WNW,297,12.0,12.0,76,0.00,CLR,,0.00,WeatherDisplay:10.37,2013-03-03 01:38:00,
2013-03-02 19:43:00,28.2,21.6,30.10,NW,324,11.5,11.5,76,0.00,CLR,,0.00,WeatherDisplay:10.37,2013-03-03 01:43:00,
2013-03-02 19:48:00,28.3,22.0,30.10,NNW,334,13.8,13.8,77,0.00,CLR,,0.00,WeatherDisplay:10.37,2013-03-03 01:48:00,
2013-03-02 19:53:00,28.2,21.9,30.10,WNW,300,12.7,12.7,77,0.00,CLR,,0.00,WeatherDisplay:10.37,2013-03-03 01:53:00,
2013-03-02 19:58:00,28.2,22.2,30.10,NW,313,10.4,10.4,78,0.00,CLR,,0.00,WeatherDisplay:10.37,2013-03-03 01:58:00,
2013-03-02 20:03:00,28.1,22.1,30.10,WNW,296,16.1,16.1,78,0.00,CLR,,0.00,WeatherDisplay:10.37,2013-03-03 02:03:00,
2013-03-02 20:08:00,28.0,22.3,30.10,NW,320,9.2,9.3,79,0.00,CLR,,0.00,WeatherDisplay:10.37,2013-03-03 02:08:00,
2013-03-02 20:13:00,28.0,22.3,30.10,NW,320,12.7,12.7,79,0.00,CLR,,0.00,WeatherDisplay:10.37,2013-03-03 02:13:00,
2013-03-02 20:18:00,27.9,22.2,30.11,NW,323,16.1,16.1,79,0.00,CLR,,0.00,WeatherDisplay:10.37,2013-03-03 02:18:00,
2013-03-02 20:23:00,27.8,22.1,30.11,WNW,292,15.0,15.0,79,0.00,CLR,,0.00,WeatherDisplay:10.37,2013-03-03 02:23:00,
2013-03-02 20:28:00,27.7,22.0,30.11,NW,311,11.5,11.5,79,0.00,CLR,,0.00,WeatherDisplay:10.37,2013-03-03 02:28:00,
2013-03-02 20:33:00,27.7,22.3,30.11,NW,311,13.8,13.8,80,0.00,CLR,,0.00,WeatherDisplay:10.37,2013-03-03 02:33:00,
2013-03-02 20:38:00,27.6,22.2,30.11,WNW,302,15.0,15.0,80,0.00,CLR,,0.00,WeatherDisplay:10.37,2013-03-03 02:38:00,
2013-03-02 20:43:00,27.6,22.2,30.11,NNW,337,12.7,12.7,80,0.00,CLR,,0.00,WeatherDisplay:10.37,2013-03-03 02:43:00,
2013-03-02 20:48:00,27.5,22.1,30.11,NW,306,12.7,12.7,80,0.00,CLR,,0.00,WeatherDisplay:10.37,2013-03-03 02:48:00,
2013-03-02 20:53:00,27.4,22.0,30.11,NW,324,12.7,12.7,80,0.00,CLR,,0.00,WeatherDisplay:10.37,2013-03-03 02:53:00,
2013-03-02 20:58:00,27.4,22.0,30.11,NW,321,14.0,14.0,80,0.00,CLR,,0.00,WeatherDisplay:10.37,2013-03-03 02:58:00,
2013-03-02 21:03:00,27.2,21.8,30.11,NW,306,17.3,17.3,80,0.00,CLR,,0.00,WeatherDisplay:10.37,2013-03-03 03:03:00,
2013-03-02 21:08:00,27.1,21.7,30.11,NW,314,15.0,15.0,80,0.00,CLR,,0.00,WeatherDisplay:10.37,2013-03-03 03:08:00,
2013-03-02 21:13:00,26.9,21.6,30.11,WNW,298,11.5,11.5,80,0.00,CLR,,0.00,WeatherDisplay:10.37,2013-03-03 03:13:00,
2013-03-02 21:18:00,26.8,21.5,30.11,NW,308,12.7,12.7,80,0.00,CLR,,0.00,WeatherDisplay:10.37,2013-03-03 03:18:00,
2013-03-02 21:23:00,26.6,21.0,30.11,NW,321,13.8,13.8,79,0.00,CLR,,0.00,WeatherDisplay:10.37,2013-03-03 03:23:00,
2013-03-02 21:28:00,26.5,20.3,30.11,NNW,340,14.0,14.0,77,0.00,CLR,,0.00,WeatherDisplay:10.37,2013-03-03 03:28:00,
2013-03-02 21:33:00,26.4,19.9,30.11,NW,317,15.0,15.0,76,0.00,CLR,,0.00,WeatherDisplay:10.37,2013-03-03 03:33:00,
2013-03-02 21:38:00,26.3,19.8,30.11,NW,315,15.0,15.0,76,0.00,CLR,,0.00,WeatherDisplay:10.37,2013-03-03 03:38:00,
2013-03-02 21:43:00,26.1,19.6,30.11,WNW,300,17.3,17.3,76,0.00,CLR,,0.00,WeatherDisplay:10.37,2013-03-03 03:43:00,
2013-03-02 21:48:00,25.6,18.8,30.11,WNW,301,11.5,11.5,75,0.00,CLR,,0.00,WeatherDisplay:10.37,2013-03-03 03:48:00,
2013-03-02 21:53:00,25.3,17.9,30.11,NNW,333,12.7,12.7,73,0.00,CLR,,0.00,WeatherDisplay:10.37,2013-03-03 03:53:00,
2013-03-02 21:58:00,25.2,17.8,30.11,NW,308,16.1,16.1,73,0.00,CLR,,0.00,WeatherDisplay:10.37,2013-03-03 03:58:00,
2013-03-02 22:03:00,25.0,17.6,30.11,WNW,295,18.4,18.4,73,0.00,CLR,,0.00,WeatherDisplay:10.37,2013-03-03 04:03:00,
2013-03-02 22:08:00,24.9,17.5,30.11,NW,312,13.8,13.8,73,0.00,CLR,,0.00,WeatherDisplay:10.37,2013-03-03 04:08:00,
2013-03-02 22:13:00,24.8,17.4,30.11,NW,318,15.0,15.0,73,0.00,CLR,,0.00,WeatherDisplay:10.37,2013-03-03 04:13:00,
2013-03-02 22:18:00,24.7,17.6,30.11,WNW,288,14.0,14.0,74,0.00,CLR,,0.00,WeatherDisplay:10.37,2013-03-03 04:18:00,
2013-03-02 22:23:00,24.6,17.5,30.11,WNW,292,12.7,12.7,74,0.00,CLR,,0.00,WeatherDisplay:10.37,2013-03-03 04:23:00,
2013-03-02 22:28:00,24.5,17.7,30.11,NW,313,16.1,16.1,75,0.00,CLR,,0.00,WeatherDisplay:10.37,2013-03-03 04:28:00,
2013-03-02 22:33:00,24.4,17.6,30.11,NW,323,18.4,18.4,75,0.00,CLR,,0.00,WeatherDisplay:10.37,2013-03-03 04:33:00,
2013-03-02 22:38:00,24.3,17.8,30.11,NW,321,13.8,13.8,76,0.00,CLR,,0.00,WeatherDisplay:10.37,2013-03-03 04:38:00,
2013-03-02 22:43:00,24.2,17.7,30.11,WNW,298,15.0,15.0,76,0.00,CLR,,0.00,WeatherDisplay:10.37,2013-03-03 04:43:00,
2013-03-02 22:48:00,24.0,17.5,30.10,NW,321,17.3,17.3,76,0.00,CLR,,0.00,WeatherDisplay:10.37,2013-03-03 04:48:00,
2013-03-02 22:53:00,24.0,17.8,30.10,NW,304,9.2,9.2,77,0.00,CLR,,0.00,WeatherDisplay:10.37,2013-03-03 04:53:00,
2013-03-02 22:58:00,23.8,17.6,30.10,NW,311,12.7,12.7,77,0.00,CLR,,0.00,WeatherDisplay:10.37,2013-03-03 04:58:00,
2013-03-02 23:00:00,23.8,17.6,30.10,NW,317,11.5,11.5,77,0.00,CLR,,0.00,WeatherDisplay:10.37,2013-03-03 05:00:00,
2013-03-02 23:05:00,23.6,17.4,30.10,NW,313,13.8,13.8,77,0.00,CLR,,0.00,WeatherDisplay:10.37,2013-03-03 05:05:00,
2013-03-02 23:10:00,23.6,17.4,30.10,NW,317,5.8,5.8,77,0.00,CLR,,0.00,WeatherDisplay:10.37,2013-03-03 05:10:00,
2013-03-02 23:15:00,23.5,17.3,30.10,NW,308,7.0,7.0,77,0.00,CLR,,0.00,WeatherDisplay:10.37,2013-03-03 05:15:00,
2013-03-02 23:20:00,23.4,17.3,30.10,NW,309,10.4,10.4,77,0.00,CLR,,0.00,WeatherDisplay:10.37,2013-03-03 05:20:00,
2013-03-02 23:25:00,23.3,17.2,30.10,WNW,299,10.4,10.4,77,0.00,CLR,,0.00,WeatherDisplay:10.37,2013-03-03 05:25:00,
2013-03-02 23:30:00,23.3,17.2,30.10,NW,309,9.2,9.2,77,0.00,CLR,,0.00,WeatherDisplay:10.37,2013-03-03 05:30:00,
2013-03-02 23:35:00,23.2,17.1,30.10,NW,312,7.0,10.0,77,0.00,CLR,,0.00,WeatherDisplay:10.37,2013-03-03 05:35:00,
2013-03-02 23:40:00,23.1,17.0,30.10,NW,315,6.9,6.9,77,0.00,CLR,,0.00,WeatherDisplay:10.37,2013-03-03 05:40:00,
2013-03-02 23:45:00,23.1,17.0,30.10,NW,315,3.5,3.5,77,0.00,CLR,,0.00,WeatherDisplay:10.37,2013-03-03 05:45:00,
2013-03-02 23:50:00,23.0,16.9,30.10,WNW,300,12.7,12.7,77,0.00,CLR,,0.00,WeatherDisplay:10.37,2013-03-03 05:50:00,
2013-03-02 23:55:00,22.9,16.8,30.10,WNW,290,9.2,9.2,77,0.00,CLR,,0.00,WeatherDisplay:10.37,2013-03-03 05:55:00,